sensor_id;sensor_type;location;lat;lon;timestamp;P1;durP1;ratioP1;P2;durP2;ratioP2
10162;SDS011;5123;52.556;13.384;2023-07-31T00:00:18;3.03;;;2.20;;
10162;SDS011;5123;52.556;13.384;2023-07-31T00:02:51;2.73;;;2.07;;
10162;SDS011;5123;52.556;13.384;2023-07-31T00:05:27;5.87;;;2.63;;
10162;SDS011;5123;52.556;13.384;2023-07-31T00:07:59;3.43;;;2.40;;
10162;SDS011;5123;52.556;13.384;2023-07-31T00:10:33;3.27;;;2.10;;
10162;SDS011;5123;52.556;13.384;2023-07-31T00:13:07;4.00;;;2.20;;
10162;SDS011;5123;52.556;13.384;2023-07-31T00:15:39;4.23;;;2.30;;
10162;SDS011;5123;52.556;13.384;2023-07-31T00:18:12;7.07;;;2.70;;
10162;SDS011;5123;52.556;13.384;2023-07-31T00:20:45;6.47;;;2.30;;
10162;SDS011;5123;52.556;13.384;2023-07-31T00:23:18;5.03;;;2.40;;
10162;SDS011;5123;52.556;13.384;2023-07-31T00:25:51;3.87;;;2.40;;
10162;SDS011;5123;52.556;13.384;2023-07-31T00:28:25;5.30;;;2.10;;
10162;SDS011;5123;52.556;13.384;2023-07-31T00:30:59;4.37;;;2.37;;
10162;SDS011;5123;52.556;13.384;2023-07-31T00:33:31;2.97;;;2.67;;
10162;SDS011;5123;52.556;13.384;2023-07-31T00:36:07;3.07;;;1.90;;
10162;SDS011;5123;52.556;13.384;2023-07-31T00:38:39;2.87;;;2.57;;
10162;SDS011;5123;52.556;13.384;2023-07-31T00:41:12;4.37;;;2.33;;
10162;SDS011;5123;52.556;13.384;2023-07-31T00:43:46;4.47;;;2.47;;
10162;SDS011;5123;52.556;13.384;2023-07-31T00:46:19;3.27;;;2.57;;
10162;SDS011;5123;52.556;13.384;2023-07-31T00:48:54;4.50;;;2.90;;
10162;SDS011;5123;52.556;13.384;2023-07-31T00:51:27;4.33;;;2.50;;
10162;SDS011;5123;52.556;13.384;2023-07-31T00:53:59;3.23;;;2.60;;
10162;SDS011;5123;52.556;13.384;2023-07-31T00:56:34;5.13;;;2.90;;
10162;SDS011;5123;52.556;13.384;2023-07-31T00:59:08;4.50;;;2.83;;
10162;SDS011;5123;52.556;13.384;2023-07-31T01:01:41;3.23;;;2.43;;
10162;SDS011;5123;52.556;13.384;2023-07-31T01:04:14;4.43;;;2.60;;
10162;SDS011;5123;52.556;13.384;2023-07-31T01:06:52;4.37;;;2.70;;
10162;SDS011;5123;52.556;13.384;2023-07-31T01:09:32;5.63;;;2.77;;
10162;SDS011;5123;52.556;13.384;2023-07-31T01:12:06;5.57;;;2.80;;
10162;SDS011;5123;52.556;13.384;2023-07-31T01:14:42;3.53;;;2.53;;
10162;SDS011;5123;52.556;13.384;2023-07-31T01:17:22;5.17;;;2.70;;
10162;SDS011;5123;52.556;13.384;2023-07-31T01:20:01;4.13;;;2.37;;
10162;SDS011;5123;52.556;13.384;2023-07-31T01:28:14;3.63;;;2.73;;
10162;SDS011;5123;52.556;13.384;2023-07-31T01:30:50;4.30;;;2.47;;
10162;SDS011;5123;52.556;13.384;2023-07-31T01:33:23;4.87;;;2.73;;
10162;SDS011;5123;52.556;13.384;2023-07-31T01:35:55;3.97;;;2.23;;
10162;SDS011;5123;52.556;13.384;2023-07-31T01:38:28;2.63;;;2.40;;
10162;SDS011;5123;52.556;13.384;2023-07-31T01:41:01;5.17;;;2.67;;
10162;SDS011;5123;52.556;13.384;2023-07-31T01:43:35;4.50;;;2.43;;
10162;SDS011;5123;52.556;13.384;2023-07-31T01:46:07;3.93;;;2.70;;
10162;SDS011;5123;52.556;13.384;2023-07-31T01:48:40;5.33;;;3.17;;
10162;SDS011;5123;52.556;13.384;2023-07-31T01:51:16;5.40;;;3.00;;
10162;SDS011;5123;52.556;13.384;2023-07-31T01:53:48;3.60;;;2.97;;
10162;SDS011;5123;52.556;13.384;2023-07-31T01:56:21;6.87;;;3.00;;
10162;SDS011;5123;52.556;13.384;2023-07-31T01:58:55;4.70;;;2.77;;
10162;SDS011;5123;52.556;13.384;2023-07-31T02:01:28;4.53;;;2.53;;
10162;SDS011;5123;52.556;13.384;2023-07-31T02:04:03;3.23;;;2.93;;
10162;SDS011;5123;52.556;13.384;2023-07-31T02:06:39;3.30;;;2.83;;
10162;SDS011;5123;52.556;13.384;2023-07-31T02:09:12;4.57;;;2.80;;
10162;SDS011;5123;52.556;13.384;2023-07-31T02:11:47;3.07;;;2.80;;
10162;SDS011;5123;52.556;13.384;2023-07-31T02:14:21;4.33;;;3.37;;
10162;SDS011;5123;52.556;13.384;2023-07-31T02:16:54;7.50;;;2.80;;
10162;SDS011;5123;52.556;13.384;2023-07-31T02:19:27;4.07;;;3.17;;
10162;SDS011;5123;52.556;13.384;2023-07-31T02:21:59;6.07;;;3.20;;
10162;SDS011;5123;52.556;13.384;2023-07-31T02:24:32;3.20;;;2.90;;
10162;SDS011;5123;52.556;13.384;2023-07-31T02:27:05;4.23;;;3.03;;
10162;SDS011;5123;52.556;13.384;2023-07-31T02:29:39;5.03;;;2.77;;
10162;SDS011;5123;52.556;13.384;2023-07-31T02:32:12;3.63;;;3.00;;
10162;SDS011;5123;52.556;13.384;2023-07-31T02:34:44;5.40;;;3.20;;
10162;SDS011;5123;52.556;13.384;2023-07-31T02:37:17;3.47;;;2.87;;
10162;SDS011;5123;52.556;13.384;2023-07-31T02:39:50;3.03;;;2.83;;
10162;SDS011;5123;52.556;13.384;2023-07-31T02:42:22;5.10;;;3.10;;
10162;SDS011;5123;52.556;13.384;2023-07-31T02:44:57;4.23;;;3.60;;
10162;SDS011;5123;52.556;13.384;2023-07-31T02:47:31;3.90;;;2.93;;
10162;SDS011;5123;52.556;13.384;2023-07-31T02:50:07;4.77;;;3.70;;
10162;SDS011;5123;52.556;13.384;2023-07-31T02:52:39;5.23;;;3.23;;
10162;SDS011;5123;52.556;13.384;2023-07-31T02:55:12;4.60;;;3.17;;
10162;SDS011;5123;52.556;13.384;2023-07-31T02:57:45;3.23;;;2.93;;
10162;SDS011;5123;52.556;13.384;2023-07-31T03:00:20;3.10;;;2.80;;
10162;SDS011;5123;52.556;13.384;2023-07-31T03:02:52;5.57;;;3.60;;
10162;SDS011;5123;52.556;13.384;2023-07-31T03:05:25;5.40;;;3.10;;
10162;SDS011;5123;52.556;13.384;2023-07-31T03:07:58;7.90;;;3.60;;
10162;SDS011;5123;52.556;13.384;2023-07-31T03:10:30;4.70;;;3.60;;
10162;SDS011;5123;52.556;13.384;2023-07-31T03:13:05;3.87;;;3.47;;
10162;SDS011;5123;52.556;13.384;2023-07-31T03:15:39;5.97;;;3.40;;
10162;SDS011;5123;52.556;13.384;2023-07-31T03:18:14;5.70;;;3.30;;
10162;SDS011;5123;52.556;13.384;2023-07-31T03:20:46;4.27;;;3.50;;
10162;SDS011;5123;52.556;13.384;2023-07-31T03:23:19;8.63;;;3.60;;
10162;SDS011;5123;52.556;13.384;2023-07-31T03:25:55;5.37;;;3.93;;
10162;SDS011;5123;52.556;13.384;2023-07-31T03:28:28;5.50;;;4.07;;
10162;SDS011;5123;52.556;13.384;2023-07-31T03:31:03;6.83;;;3.77;;
10162;SDS011;5123;52.556;13.384;2023-07-31T03:33:35;6.00;;;4.30;;
10162;SDS011;5123;52.556;13.384;2023-07-31T03:36:08;5.00;;;3.67;;
10162;SDS011;5123;52.556;13.384;2023-07-31T03:38:41;5.20;;;3.70;;
10162;SDS011;5123;52.556;13.384;2023-07-31T03:41:14;3.83;;;3.40;;
10162;SDS011;5123;52.556;13.384;2023-07-31T03:43:50;6.83;;;3.70;;
10162;SDS011;5123;52.556;13.384;2023-07-31T03:46:26;7.00;;;4.37;;
10162;SDS011;5123;52.556;13.384;2023-07-31T03:48:59;7.37;;;4.80;;
10162;SDS011;5123;52.556;13.384;2023-07-31T03:51:31;6.20;;;4.40;;
10162;SDS011;5123;52.556;13.384;2023-07-31T03:54:04;5.80;;;4.20;;
10162;SDS011;5123;52.556;13.384;2023-07-31T03:56:41;6.53;;;4.70;;
10162;SDS011;5123;52.556;13.384;2023-07-31T03:59:14;7.20;;;4.53;;
10162;SDS011;5123;52.556;13.384;2023-07-31T04:01:48;7.30;;;4.23;;
10162;SDS011;5123;52.556;13.384;2023-07-31T04:04:21;5.43;;;4.93;;
10162;SDS011;5123;52.556;13.384;2023-07-31T04:06:54;6.23;;;4.10;;
10162;SDS011;5123;52.556;13.384;2023-07-31T04:09:29;7.20;;;4.90;;
10162;SDS011;5123;52.556;13.384;2023-07-31T04:12:02;6.00;;;4.50;;
10162;SDS011;5123;52.556;13.384;2023-07-31T04:14:35;5.90;;;4.07;;
10162;SDS011;5123;52.556;13.384;2023-07-31T04:17:09;8.80;;;3.80;;
10162;SDS011;5123;52.556;13.384;2023-07-31T04:19:46;6.37;;;4.47;;
10162;SDS011;5123;52.556;13.384;2023-07-31T04:22:18;6.60;;;4.07;;
10162;SDS011;5123;52.556;13.384;2023-07-31T04:24:51;5.73;;;4.07;;
10162;SDS011;5123;52.556;13.384;2023-07-31T04:27:24;6.57;;;4.03;;
10162;SDS011;5123;52.556;13.384;2023-07-31T04:29:58;6.20;;;4.03;;
10162;SDS011;5123;52.556;13.384;2023-07-31T04:32:32;4.57;;;4.17;;
10162;SDS011;5123;52.556;13.384;2023-07-31T04:35:07;6.63;;;3.80;;
10162;SDS011;5123;52.556;13.384;2023-07-31T04:37:39;4.13;;;3.70;;
10162;SDS011;5123;52.556;13.384;2023-07-31T04:40:12;5.07;;;3.77;;
10162;SDS011;5123;52.556;13.384;2023-07-31T04:42:45;5.30;;;4.10;;
10162;SDS011;5123;52.556;13.384;2023-07-31T04:45:18;6.00;;;4.17;;
10162;SDS011;5123;52.556;13.384;2023-07-31T04:47:52;5.73;;;3.97;;
10162;SDS011;5123;52.556;13.384;2023-07-31T04:50:25;10.07;;;4.07;;
10162;SDS011;5123;52.556;13.384;2023-07-31T04:52:58;6.33;;;3.60;;
10162;SDS011;5123;52.556;13.384;2023-07-31T04:55:31;6.63;;;4.20;;
10162;SDS011;5123;52.556;13.384;2023-07-31T04:58:04;6.83;;;3.80;;
10162;SDS011;5123;52.556;13.384;2023-07-31T05:00:37;5.17;;;3.60;;
10162;SDS011;5123;52.556;13.384;2023-07-31T05:03:11;7.67;;;3.90;;
10162;SDS011;5123;52.556;13.384;2023-07-31T05:05:49;8.53;;;4.20;;
10162;SDS011;5123;52.556;13.384;2023-07-31T05:08:22;5.17;;;4.27;;
10162;SDS011;5123;52.556;13.384;2023-07-31T05:10:56;8.50;;;4.00;;
10162;SDS011;5123;52.556;13.384;2023-07-31T05:13:29;4.87;;;3.93;;
10162;SDS011;5123;52.556;13.384;2023-07-31T05:16:03;4.30;;;3.60;;
10162;SDS011;5123;52.556;13.384;2023-07-31T05:18:38;6.83;;;4.03;;
10162;SDS011;5123;52.556;13.384;2023-07-31T05:21:13;5.27;;;3.37;;
10162;SDS011;5123;52.556;13.384;2023-07-31T05:23:46;7.33;;;3.67;;
10162;SDS011;5123;52.556;13.384;2023-07-31T05:26:21;5.80;;;3.87;;
10162;SDS011;5123;52.556;13.384;2023-07-31T05:28:56;5.73;;;3.67;;
10162;SDS011;5123;52.556;13.384;2023-07-31T05:31:29;5.77;;;4.00;;
10162;SDS011;5123;52.556;13.384;2023-07-31T05:34:05;7.00;;;3.83;;
10162;SDS011;5123;52.556;13.384;2023-07-31T05:36:37;7.47;;;4.67;;
10162;SDS011;5123;52.556;13.384;2023-07-31T05:39:10;7.80;;;3.93;;
10162;SDS011;5123;52.556;13.384;2023-07-31T05:41:43;8.50;;;4.03;;
10162;SDS011;5123;52.556;13.384;2023-07-31T05:44:16;6.17;;;3.80;;
10162;SDS011;5123;52.556;13.384;2023-07-31T05:46:48;4.33;;;3.67;;
10162;SDS011;5123;52.556;13.384;2023-07-31T05:49:23;8.50;;;4.20;;
10162;SDS011;5123;52.556;13.384;2023-07-31T05:51:55;4.33;;;3.80;;
10162;SDS011;5123;52.556;13.384;2023-07-31T05:54:28;5.77;;;3.73;;
10162;SDS011;5123;52.556;13.384;2023-07-31T05:57:00;6.20;;;4.17;;
10162;SDS011;5123;52.556;13.384;2023-07-31T05:59:33;5.37;;;3.50;;
10162;SDS011;5123;52.556;13.384;2023-07-31T06:02:06;6.87;;;3.80;;
10162;SDS011;5123;52.556;13.384;2023-07-31T06:04:40;6.50;;;4.00;;
10162;SDS011;5123;52.556;13.384;2023-07-31T06:07:13;4.33;;;3.40;;
10162;SDS011;5123;52.556;13.384;2023-07-31T06:09:45;6.07;;;3.70;;
10162;SDS011;5123;52.556;13.384;2023-07-31T06:12:18;5.87;;;3.30;;
10162;SDS011;5123;52.556;13.384;2023-07-31T06:14:51;5.27;;;3.60;;
10162;SDS011;5123;52.556;13.384;2023-07-31T06:17:24;6.50;;;3.20;;
10162;SDS011;5123;52.556;13.384;2023-07-31T06:19:59;4.83;;;3.23;;
10162;SDS011;5123;52.556;13.384;2023-07-31T06:22:32;5.93;;;3.60;;
10162;SDS011;5123;52.556;13.384;2023-07-31T06:25:05;4.73;;;3.40;;
10162;SDS011;5123;52.556;13.384;2023-07-31T06:27:37;6.87;;;3.73;;
10162;SDS011;5123;52.556;13.384;2023-07-31T06:30:11;4.60;;;3.20;;
10162;SDS011;5123;52.556;13.384;2023-07-31T06:32:44;4.50;;;3.43;;
10162;SDS011;5123;52.556;13.384;2023-07-31T06:35:21;5.20;;;3.70;;
10162;SDS011;5123;52.556;13.384;2023-07-31T06:37:54;5.33;;;3.33;;
10162;SDS011;5123;52.556;13.384;2023-07-31T06:40:33;7.07;;;3.20;;
10162;SDS011;5123;52.556;13.384;2023-07-31T06:43:09;5.13;;;3.43;;
10162;SDS011;5123;52.556;13.384;2023-07-31T06:45:44;8.43;;;3.67;;
10162;SDS011;5123;52.556;13.384;2023-07-31T06:48:17;4.47;;;3.37;;
10162;SDS011;5123;52.556;13.384;2023-07-31T06:50:52;5.00;;;3.37;;
10162;SDS011;5123;52.556;13.384;2023-07-31T06:53:25;4.40;;;3.23;;
10162;SDS011;5123;52.556;13.384;2023-07-31T06:55:57;4.70;;;3.03;;
10162;SDS011;5123;52.556;13.384;2023-07-31T06:58:30;6.67;;;3.63;;
10162;SDS011;5123;52.556;13.384;2023-07-31T07:01:03;3.97;;;3.23;;
10162;SDS011;5123;52.556;13.384;2023-07-31T07:03:36;4.97;;;3.40;;
10162;SDS011;5123;52.556;13.384;2023-07-31T07:06:10;5.70;;;3.43;;
10162;SDS011;5123;52.556;13.384;2023-07-31T07:08:44;4.50;;;3.00;;
10162;SDS011;5123;52.556;13.384;2023-07-31T07:11:17;3.53;;;3.07;;
10162;SDS011;5123;52.556;13.384;2023-07-31T07:13:50;6.80;;;3.47;;
10162;SDS011;5123;52.556;13.384;2023-07-31T07:16:25;7.20;;;3.30;;
10162;SDS011;5123;52.556;13.384;2023-07-31T07:18:58;5.63;;;3.30;;
10162;SDS011;5123;52.556;13.384;2023-07-31T07:21:37;5.73;;;2.93;;
10162;SDS011;5123;52.556;13.384;2023-07-31T07:24:09;5.13;;;2.90;;
10162;SDS011;5123;52.556;13.384;2023-07-31T07:26:45;5.20;;;3.07;;
10162;SDS011;5123;52.556;13.384;2023-07-31T07:29:18;6.67;;;3.23;;
10162;SDS011;5123;52.556;13.384;2023-07-31T07:31:50;4.00;;;2.67;;
10162;SDS011;5123;52.556;13.384;2023-07-31T07:34:24;5.50;;;3.40;;
10162;SDS011;5123;52.556;13.384;2023-07-31T07:36:58;4.63;;;2.87;;
10162;SDS011;5123;52.556;13.384;2023-07-31T07:39:30;4.07;;;2.70;;
10162;SDS011;5123;52.556;13.384;2023-07-31T07:42:03;3.57;;;2.50;;
10162;SDS011;5123;52.556;13.384;2023-07-31T07:44:36;4.53;;;3.03;;
10162;SDS011;5123;52.556;13.384;2023-07-31T07:47:09;3.73;;;2.77;;
10162;SDS011;5123;52.556;13.384;2023-07-31T07:49:41;5.20;;;3.07;;
10162;SDS011;5123;52.556;13.384;2023-07-31T07:52:22;3.70;;;2.90;;
10162;SDS011;5123;52.556;13.384;2023-07-31T07:54:55;4.83;;;3.23;;
10162;SDS011;5123;52.556;13.384;2023-07-31T07:57:28;5.27;;;3.07;;
10162;SDS011;5123;52.556;13.384;2023-07-31T08:00:00;5.53;;;3.30;;
10162;SDS011;5123;52.556;13.384;2023-07-31T08:02:35;5.60;;;3.23;;
10162;SDS011;5123;52.556;13.384;2023-07-31T08:05:08;4.13;;;3.33;;
10162;SDS011;5123;52.556;13.384;2023-07-31T08:07:42;3.37;;;2.77;;
10162;SDS011;5123;52.556;13.384;2023-07-31T08:10:15;3.23;;;2.80;;
10162;SDS011;5123;52.556;13.384;2023-07-31T08:12:48;6.83;;;2.90;;
10162;SDS011;5123;52.556;13.384;2023-07-31T08:15:20;5.03;;;2.93;;
10162;SDS011;5123;52.556;13.384;2023-07-31T08:17:53;5.07;;;2.87;;
10162;SDS011;5123;52.556;13.384;2023-07-31T08:20:26;3.67;;;2.93;;
10162;SDS011;5123;52.556;13.384;2023-07-31T08:23:04;4.73;;;2.70;;
10162;SDS011;5123;52.556;13.384;2023-07-31T08:25:39;4.53;;;2.93;;
10162;SDS011;5123;52.556;13.384;2023-07-31T08:28:15;2.97;;;2.50;;
10162;SDS011;5123;52.556;13.384;2023-07-31T08:30:48;3.10;;;2.80;;
10162;SDS011;5123;52.556;13.384;2023-07-31T08:33:24;4.37;;;2.30;;
10162;SDS011;5123;52.556;13.384;2023-07-31T08:35:57;3.83;;;2.60;;
10162;SDS011;5123;52.556;13.384;2023-07-31T08:38:34;3.80;;;2.90;;
10162;SDS011;5123;52.556;13.384;2023-07-31T08:41:07;3.27;;;2.80;;
10162;SDS011;5123;52.556;13.384;2023-07-31T08:43:39;4.07;;;2.60;;
10162;SDS011;5123;52.556;13.384;2023-07-31T08:46:13;3.07;;;2.67;;
10162;SDS011;5123;52.556;13.384;2023-07-31T08:48:46;3.47;;;2.43;;
10162;SDS011;5123;52.556;13.384;2023-07-31T08:51:19;4.53;;;2.53;;
10162;SDS011;5123;52.556;13.384;2023-07-31T08:53:56;5.60;;;5.00;;
10162;SDS011;5123;52.556;13.384;2023-07-31T08:56:30;4.40;;;3.20;;
10162;SDS011;5123;52.556;13.384;2023-07-31T08:59:06;3.50;;;2.67;;
10162;SDS011;5123;52.556;13.384;2023-07-31T09:01:42;5.27;;;2.50;;
10162;SDS011;5123;52.556;13.384;2023-07-31T09:04:16;3.23;;;2.50;;
10162;SDS011;5123;52.556;13.384;2023-07-31T09:06:49;2.60;;;2.40;;
10162;SDS011;5123;52.556;13.384;2023-07-31T09:09:23;2.40;;;2.00;;
10162;SDS011;5123;52.556;13.384;2023-07-31T09:11:56;3.20;;;2.17;;
10162;SDS011;5123;52.556;13.384;2023-07-31T09:14:29;3.03;;;2.33;;
10162;SDS011;5123;52.556;13.384;2023-07-31T09:17:02;2.10;;;1.90;;
10162;SDS011;5123;52.556;13.384;2023-07-31T09:19:35;2.97;;;2.33;;
10162;SDS011;5123;52.556;13.384;2023-07-31T09:22:09;2.40;;;2.20;;
10162;SDS011;5123;52.556;13.384;2023-07-31T09:24:44;2.53;;;2.27;;
10162;SDS011;5123;52.556;13.384;2023-07-31T09:27:18;2.87;;;2.33;;
10162;SDS011;5123;52.556;13.384;2023-07-31T09:29:58;2.20;;;2.00;;
10162;SDS011;5123;52.556;13.384;2023-07-31T09:32:31;4.40;;;2.73;;
10162;SDS011;5123;52.556;13.384;2023-07-31T09:35:11;3.67;;;2.63;;
10162;SDS011;5123;52.556;13.384;2023-07-31T09:37:48;4.90;;;4.27;;
10162;SDS011;5123;52.556;13.384;2023-07-31T09:40:27;4.20;;;3.80;;
10162;SDS011;5123;52.556;13.384;2023-07-31T09:43:01;5.67;;;2.90;;
10162;SDS011;5123;52.556;13.384;2023-07-31T09:45:52;2.90;;;2.60;;
10162;SDS011;5123;52.556;13.384;2023-07-31T09:48:26;2.67;;;2.17;;
10162;SDS011;5123;52.556;13.384;2023-07-31T09:51:01;2.33;;;2.13;;
10162;SDS011;5123;52.556;13.384;2023-07-31T09:53:38;3.83;;;1.83;;
10162;SDS011;5123;52.556;13.384;2023-07-31T09:56:13;4.00;;;2.10;;
10162;SDS011;5123;52.556;13.384;2023-07-31T09:58:54;2.73;;;2.23;;
10162;SDS011;5123;52.556;13.384;2023-07-31T10:01:28;2.47;;;2.10;;
10162;SDS011;5123;52.556;13.384;2023-07-31T10:04:01;2.23;;;2.03;;
10162;SDS011;5123;52.556;13.384;2023-07-31T10:06:35;4.10;;;2.20;;
10162;SDS011;5123;52.556;13.384;2023-07-31T10:09:09;2.70;;;2.27;;
10162;SDS011;5123;52.556;13.384;2023-07-31T10:11:46;2.90;;;2.13;;
10162;SDS011;5123;52.556;13.384;2023-07-31T10:14:22;3.47;;;2.20;;
10162;SDS011;5123;52.556;13.384;2023-07-31T10:16:57;2.70;;;2.50;;
10162;SDS011;5123;52.556;13.384;2023-07-31T10:19:30;3.30;;;2.30;;
10162;SDS011;5123;52.556;13.384;2023-07-31T10:22:04;4.27;;;2.63;;
10162;SDS011;5123;52.556;13.384;2023-07-31T10:24:37;3.67;;;2.67;;
10162;SDS011;5123;52.556;13.384;2023-07-31T10:27:11;7.30;;;3.13;;
10162;SDS011;5123;52.556;13.384;2023-07-31T10:29:47;3.13;;;2.80;;
10162;SDS011;5123;52.556;13.384;2023-07-31T10:32:21;5.50;;;3.63;;
10162;SDS011;5123;52.556;13.384;2023-07-31T10:34:54;5.07;;;3.53;;
10162;SDS011;5123;52.556;13.384;2023-07-31T10:37:27;6.53;;;3.13;;
10162;SDS011;5123;52.556;13.384;2023-07-31T10:40:06;5.13;;;4.30;;
10162;SDS011;5123;52.556;13.384;2023-07-31T10:42:46;4.87;;;3.97;;
10162;SDS011;5123;52.556;13.384;2023-07-31T10:45:27;5.10;;;3.97;;
10162;SDS011;5123;52.556;13.384;2023-07-31T10:48:03;6.30;;;3.87;;
10162;SDS011;5123;52.556;13.384;2023-07-31T10:50:45;6.97;;;4.13;;
10162;SDS011;5123;52.556;13.384;2023-07-31T10:53:22;7.90;;;4.70;;
10162;SDS011;5123;52.556;13.384;2023-07-31T10:55:57;7.23;;;4.40;;
10162;SDS011;5123;52.556;13.384;2023-07-31T10:58:32;5.37;;;3.70;;
10162;SDS011;5123;52.556;13.384;2023-07-31T11:01:06;10.67;;;4.10;;
10162;SDS011;5123;52.556;13.384;2023-07-31T11:03:43;6.93;;;4.27;;
10162;SDS011;5123;52.556;13.384;2023-07-31T11:06:16;5.07;;;3.57;;
10162;SDS011;5123;52.556;13.384;2023-07-31T11:08:52;6.73;;;3.80;;
10162;SDS011;5123;52.556;13.384;2023-07-31T11:11:26;5.50;;;3.70;;
10162;SDS011;5123;52.556;13.384;2023-07-31T11:14:00;4.27;;;3.30;;
10162;SDS011;5123;52.556;13.384;2023-07-31T11:16:32;5.10;;;3.93;;
10162;SDS011;5123;52.556;13.384;2023-07-31T11:19:08;6.17;;;4.60;;
10162;SDS011;5123;52.556;13.384;2023-07-31T11:21:40;5.90;;;3.67;;
10162;SDS011;5123;52.556;13.384;2023-07-31T11:24:13;5.07;;;3.90;;
10162;SDS011;5123;52.556;13.384;2023-07-31T11:26:49;9.93;;;3.83;;
10162;SDS011;5123;52.556;13.384;2023-07-31T11:29:28;7.23;;;4.27;;
10162;SDS011;5123;52.556;13.384;2023-07-31T11:32:01;6.23;;;3.77;;
10162;SDS011;5123;52.556;13.384;2023-07-31T11:34:50;5.83;;;3.53;;
10162;SDS011;5123;52.556;13.384;2023-07-31T11:37:23;5.17;;;3.57;;
10162;SDS011;5123;52.556;13.384;2023-07-31T11:39:59;4.77;;;3.30;;
10162;SDS011;5123;52.556;13.384;2023-07-31T11:42:32;5.47;;;3.83;;
10162;SDS011;5123;52.556;13.384;2023-07-31T11:45:08;5.67;;;3.73;;
10162;SDS011;5123;52.556;13.384;2023-07-31T11:47:41;7.13;;;3.93;;
10162;SDS011;5123;52.556;13.384;2023-07-31T11:50:13;4.93;;;3.30;;
10162;SDS011;5123;52.556;13.384;2023-07-31T11:52:46;3.77;;;3.47;;
10162;SDS011;5123;52.556;13.384;2023-07-31T11:55:21;5.43;;;3.50;;
10162;SDS011;5123;52.556;13.384;2023-07-31T11:57:54;5.70;;;3.90;;
10162;SDS011;5123;52.556;13.384;2023-07-31T12:00:30;4.67;;;3.27;;
10162;SDS011;5123;52.556;13.384;2023-07-31T12:03:10;5.50;;;3.53;;
10162;SDS011;5123;52.556;13.384;2023-07-31T12:05:43;4.73;;;3.40;;
10162;SDS011;5123;52.556;13.384;2023-07-31T12:08:16;6.97;;;3.50;;
10162;SDS011;5123;52.556;13.384;2023-07-31T12:10:49;7.63;;;5.57;;
10162;SDS011;5123;52.556;13.384;2023-07-31T12:13:23;3.87;;;3.07;;
10162;SDS011;5123;52.556;13.384;2023-07-31T12:15:57;5.17;;;3.60;;
10162;SDS011;5123;52.556;13.384;2023-07-31T12:18:33;5.57;;;3.63;;
10162;SDS011;5123;52.556;13.384;2023-07-31T12:21:06;5.97;;;3.70;;
10162;SDS011;5123;52.556;13.384;2023-07-31T12:23:40;3.90;;;2.80;;
10162;SDS011;5123;52.556;13.384;2023-07-31T12:26:14;4.83;;;3.30;;
10162;SDS011;5123;52.556;13.384;2023-07-31T12:28:50;4.90;;;3.20;;
10162;SDS011;5123;52.556;13.384;2023-07-31T12:31:25;3.73;;;2.93;;
10162;SDS011;5123;52.556;13.384;2023-07-31T12:34:02;7.23;;;4.10;;
10162;SDS011;5123;52.556;13.384;2023-07-31T12:36:35;3.20;;;2.90;;
10162;SDS011;5123;52.556;13.384;2023-07-31T12:39:09;7.87;;;3.33;;
10162;SDS011;5123;52.556;13.384;2023-07-31T12:41:42;6.37;;;2.97;;
10162;SDS011;5123;52.556;13.384;2023-07-31T12:44:16;4.37;;;3.10;;
10162;SDS011;5123;52.556;13.384;2023-07-31T12:46:52;7.67;;;4.10;;
10162;SDS011;5123;52.556;13.384;2023-07-31T12:49:25;4.93;;;3.00;;
10162;SDS011;5123;52.556;13.384;2023-07-31T12:51:58;5.10;;;3.60;;
10162;SDS011;5123;52.556;13.384;2023-07-31T12:54:31;6.30;;;3.30;;
10162;SDS011;5123;52.556;13.384;2023-07-31T12:57:04;4.80;;;3.47;;
10162;SDS011;5123;52.556;13.384;2023-07-31T12:59:37;6.20;;;3.67;;
10162;SDS011;5123;52.556;13.384;2023-07-31T13:02:11;6.77;;;3.20;;
10162;SDS011;5123;52.556;13.384;2023-07-31T13:04:45;5.17;;;3.27;;
10162;SDS011;5123;52.556;13.384;2023-07-31T13:07:17;5.20;;;2.80;;
10162;SDS011;5123;52.556;13.384;2023-07-31T13:09:50;5.03;;;2.87;;
10162;SDS011;5123;52.556;13.384;2023-07-31T13:12:23;3.13;;;2.60;;
10162;SDS011;5123;52.556;13.384;2023-07-31T13:14:56;4.53;;;3.00;;
10162;SDS011;5123;52.556;13.384;2023-07-31T13:17:30;6.73;;;2.63;;
10162;SDS011;5123;52.556;13.384;2023-07-31T13:20:04;3.90;;;2.43;;
10162;SDS011;5123;52.556;13.384;2023-07-31T13:22:39;4.30;;;2.30;;
10162;SDS011;5123;52.556;13.384;2023-07-31T13:25:15;5.57;;;2.43;;
10162;SDS011;5123;52.556;13.384;2023-07-31T13:27:50;3.07;;;2.30;;
10162;SDS011;5123;52.556;13.384;2023-07-31T13:30:26;2.87;;;2.50;;
10162;SDS011;5123;52.556;13.384;2023-07-31T13:33:01;3.97;;;2.47;;
10162;SDS011;5123;52.556;13.384;2023-07-31T13:35:34;3.70;;;2.60;;
10162;SDS011;5123;52.556;13.384;2023-07-31T13:38:07;3.30;;;2.77;;
10162;SDS011;5123;52.556;13.384;2023-07-31T13:40:40;2.83;;;2.40;;
10162;SDS011;5123;52.556;13.384;2023-07-31T13:43:13;4.47;;;2.87;;
10162;SDS011;5123;52.556;13.384;2023-07-31T13:45:46;6.97;;;5.80;;
10162;SDS011;5123;52.556;13.384;2023-07-31T13:48:20;10.33;;;7.87;;
10162;SDS011;5123;52.556;13.384;2023-07-31T13:50:53;6.50;;;5.30;;
10162;SDS011;5123;52.556;13.384;2023-07-31T13:53:30;10.37;;;7.37;;
10162;SDS011;5123;52.556;13.384;2023-07-31T13:56:03;10.27;;;7.40;;
10162;SDS011;5123;52.556;13.384;2023-07-31T13:58:39;4.70;;;4.20;;
10162;SDS011;5123;52.556;13.384;2023-07-31T14:01:11;4.93;;;3.70;;
10162;SDS011;5123;52.556;13.384;2023-07-31T14:03:46;5.77;;;3.60;;
10162;SDS011;5123;52.556;13.384;2023-07-31T14:06:20;6.20;;;4.03;;
10162;SDS011;5123;52.556;13.384;2023-07-31T14:08:55;3.20;;;2.90;;
10162;SDS011;5123;52.556;13.384;2023-07-31T14:11:28;5.67;;;3.33;;
10162;SDS011;5123;52.556;13.384;2023-07-31T14:14:01;7.10;;;3.63;;
10162;SDS011;5123;52.556;13.384;2023-07-31T14:16:34;5.60;;;4.33;;
10162;SDS011;5123;52.556;13.384;2023-07-31T14:19:08;4.27;;;3.83;;
10162;SDS011;5123;52.556;13.384;2023-07-31T14:21:41;5.73;;;4.80;;
10162;SDS011;5123;52.556;13.384;2023-07-31T14:24:24;6.83;;;5.00;;
10162;SDS011;5123;52.556;13.384;2023-07-31T14:27:02;6.10;;;3.90;;
10162;SDS011;5123;52.556;13.384;2023-07-31T14:29:35;8.53;;;5.00;;
10162;SDS011;5123;52.556;13.384;2023-07-31T14:32:10;8.23;;;5.93;;
10162;SDS011;5123;52.556;13.384;2023-07-31T14:34:44;6.80;;;4.73;;
10162;SDS011;5123;52.556;13.384;2023-07-31T14:37:25;6.03;;;4.40;;
10162;SDS011;5123;52.556;13.384;2023-07-31T14:39:58;6.27;;;4.60;;
10162;SDS011;5123;52.556;13.384;2023-07-31T14:42:31;5.53;;;4.80;;
10162;SDS011;5123;52.556;13.384;2023-07-31T14:45:08;6.33;;;4.40;;
10162;SDS011;5123;52.556;13.384;2023-07-31T14:47:41;5.23;;;4.20;;
10162;SDS011;5123;52.556;13.384;2023-07-31T14:50:19;6.37;;;4.00;;
10162;SDS011;5123;52.556;13.384;2023-07-31T14:52:52;7.40;;;4.53;;
10162;SDS011;5123;52.556;13.384;2023-07-31T14:55:25;7.83;;;6.50;;
10162;SDS011;5123;52.556;13.384;2023-07-31T14:57:58;5.17;;;4.00;;
10162;SDS011;5123;52.556;13.384;2023-07-31T15:00:31;3.93;;;2.87;;
10162;SDS011;5123;52.556;13.384;2023-07-31T15:03:04;6.37;;;4.30;;
10162;SDS011;5123;52.556;13.384;2023-07-31T15:05:38;6.83;;;4.60;;
10162;SDS011;5123;52.556;13.384;2023-07-31T15:08:11;6.00;;;4.40;;
10162;SDS011;5123;52.556;13.384;2023-07-31T15:10:43;5.70;;;3.47;;
10162;SDS011;5123;52.556;13.384;2023-07-31T15:13:16;5.17;;;3.67;;
10162;SDS011;5123;52.556;13.384;2023-07-31T15:15:51;7.93;;;3.60;;
10162;SDS011;5123;52.556;13.384;2023-07-31T15:18:24;4.93;;;3.37;;
10162;SDS011;5123;52.556;13.384;2023-07-31T15:20:58;4.27;;;3.30;;
10162;SDS011;5123;52.556;13.384;2023-07-31T15:23:31;6.87;;;3.40;;
10162;SDS011;5123;52.556;13.384;2023-07-31T15:26:04;6.20;;;3.57;;
10162;SDS011;5123;52.556;13.384;2023-07-31T15:28:37;4.53;;;3.47;;
10162;SDS011;5123;52.556;13.384;2023-07-31T15:31:19;4.53;;;3.40;;
10162;SDS011;5123;52.556;13.384;2023-07-31T15:33:53;5.40;;;3.00;;